Terminal Aerodrome Forecast
Issued by NWS Charleston, WV

Current Version | Previous Version | Graphics & Text | Print | Product List | Glossary On
Versions: 1 2 3 4 5 6 7 8 9 10 11 12 13 14 15 16 17 18 19 20 21 22 23 24 25 26 27 28 29 30 31
000
FTUS41 KRLX 291127
TAFBKW
TAF
KBKW 291127Z 2912/3012 VRB03KT 6SM BR BKN014
     FM291400 30004KT P6SM BKN016
     FM291600 30006KT P6SM BKN025
     FM291800 30006KT P6SM VCTS BKN035CB
     FM292100 28006KT P6SM BKN050
     FM300100 00000KT P6SM BKN050=

USA.gov is the U.S. government's official web portal to all federal, state and local government web resources and services.